Weather at Black Diamond (Oilfields General Hospital) Heliport

Public forecast

Using degrees Celsius for public forecast. Weather courtesy of forecast.io.

Closest aviation weather report (METAR) to Black Diamond (Oilfields General Hospital) Heliport

Closest report is Calgary / Springbank Airport, 26.0 nm (48.2 km) NNW.

2024/05/22 19:57 (retrieved 8 minutes ago)

CYBW 221957Z AUTO 08008KT 040V120 9SM -RA FEW021 BKN034 OVC045 07/04 A2989 RMK SLP147

Closest aviation forecast (TAF) to Black Diamond (Oilfields General Hospital) Heliport

Closest forecast is Calgary / Springbank Airport, 26.0 nm (48.2 km) NNW.

2024/05/22 19:36 Ammendment (retrieved 29 minutes ago)

TAF AMD TAF AMD CYBW 221933Z 2219/2304 08007KT P6SM -SHRA SCT020 BKN040 TEMPO 2219/2222 6SM -SHRA BR BKN020 OVC030 FM222200 03010KT P6SM VCSH SCT025 BKN040 TEMPO 2222/2302 P6SM -SHRA BKN025 FM230200 05008KT P6SM FEW012 BKN025 TEMPO 2302/2304 5SM -SHRA BR BKN012 OVC020 RMK FCST BASED ON AUTO OBS NXT FCST BY 230000Z